Time;durP1;ratioP1;P1;durP2;ratioP2;P2;SDS_P1;SDS_P2;PMS_P1;PMS_P2;Temp;Humidity;BMP_temperature;BMP_pressure;BME280_temperature;BME280_humidity;BME280_pressure;Samples;Min_cycle;Max_cycle;Signal;HPM_P1;HPM_P2
2021/08/10 00:01:45;;;;;;;3.97;2.63;;;15.30;99.90;;;;;;5117570;28;20704;-83
2021/08/10 00:04:10;;;;;;;4.80;2.40;;;15.30;99.90;;;;;;5130700;28;20175;-83
2021/08/10 00:06:36;;;;;;;4.87;2.47;;;15.30;99.90;;;;;;5141897;28;20191;-83
2021/08/10 00:09:02;;;;;;;3.30;2.77;;;15.20;99.90;;;;;;5142908;28;20254;-82
2021/08/10 00:11:28;;;;;;;5.07;2.33;;;15.20;99.90;;;;;;5129342;28;20172;-83
2021/08/10 00:13:54;;;;;;;3.63;2.20;;;15.20;99.90;;;;;;5120212;28;20184;-83
2021/08/10 00:16:19;;;;;;;4.00;2.53;;;15.10;99.90;;;;;;5122486;28;20188;-83
2021/08/10 00:18:45;;;;;;;6.17;2.80;;;15.10;99.90;;;;;;5122333;28;20599;-83
2021/08/10 00:21:11;;;;;;;4.43;2.53;;;15.00;99.90;;;;;;5121673;28;20187;-83
2021/08/10 00:23:37;;;;;;;3.40;2.50;;;14.90;99.90;;;;;;5120404;28;20182;-83
2021/08/10 00:26:02;;;;;;;5.07;2.70;;;14.90;99.90;;;;;;5121432;27;20195;-83
2021/08/10 00:28:29;;;;;;;3.00;2.70;;;14.80;99.90;;;;;;5119684;28;20172;-83
2021/08/10 00:30:54;;;;;;;7.40;2.83;;;14.80;99.90;;;;;;5120299;28;20236;-83
2021/08/10 00:33:20;;;;;;;7.00;3.00;;;14.80;99.90;;;;;;5119934;28;20238;-83
2021/08/10 00:35:45;;;;;;;4.00;3.07;;;14.80;99.90;;;;;;5120202;28;20286;-82
2021/08/10 00:38:11;;;;;;;3.03;2.70;;;14.70;99.90;;;;;;5119980;28;20712;-83
2021/08/10 00:40:38;;;;;;;3.80;2.73;;;14.70;99.90;;;;;;5121962;28;20516;-83
2021/08/10 00:43:36;;;;;;;4.20;2.60;;;14.70;99.90;;;;;;5121912;28;20172;-83
2021/08/10 00:46:04;;;;;;;4.57;2.97;;;14.70;99.90;;;;;;5120162;28;20223;-83
2021/08/10 00:48:30;;;;;;;4.33;2.60;;;14.70;99.90;;;;;;5120472;28;20174;-83
2021/08/10 00:50:56;;;;;;;4.63;3.07;;;14.70;99.90;;;;;;5122225;28;20251;-83
2021/08/10 00:53:22;;;;;;;4.20;3.07;;;14.70;99.90;;;;;;5121643;27;20167;-83
2021/08/10 00:55:48;;;;;;;5.07;2.93;;;14.70;99.90;;;;;;5121637;27;20270;-82
2021/08/10 00:58:14;;;;;;;4.37;2.80;;;14.60;99.90;;;;;;5119816;28;20203;-83
2021/08/10 01:00:40;;;;;;;3.37;2.43;;;14.60;99.90;;;;;;5119389;28;20660;-83
2021/08/10 01:03:06;;;;;;;3.80;2.70;;;14.50;99.90;;;;;;5119042;28;20171;-83
2021/08/10 01:05:32;;;;;;;3.03;2.70;;;14.50;99.90;;;;;;5119592;28;20289;-82
2021/08/10 01:08:10;;;;;;;4.20;3.10;;;14.40;99.90;;;;;;5119842;28;20195;-83
2021/08/10 01:10:43;;;;;;;3.57;3.23;;;14.50;99.90;;;;;;5120194;28;20167;-83
2021/08/10 01:13:22;;;;;;;5.33;3.30;;;14.50;99.90;;;;;;5121315;28;20187;-83
2021/08/10 01:16:12;;;;;;;3.90;2.83;;;14.40;99.90;;;;;;5120070;28;20191;-83
2021/08/10 01:19:06;;;;;;;3.60;2.90;;;14.40;99.90;;;;;;5119806;28;20178;-83
2021/08/10 01:21:40;;;;;;;3.47;2.70;;;14.40;99.90;;;;;;5100884;28;20211;-83
2021/08/10 01:24:21;;;;;;;3.53;2.87;;;14.50;99.90;;;;;;5121036;28;20555;-83
2021/08/10 01:27:05;;;;;;;5.13;2.93;;;14.40;99.90;;;;;;5119113;28;20215;-83
2021/08/10 01:29:45;;;;;;;4.20;3.20;;;14.40;99.90;;;;;;5121103;28;20180;-83
2021/08/10 01:32:10;;;;;;;5.20;3.40;;;14.40;99.90;;;;;;5119764;28;20179;-83
2021/08/10 01:34:40;;;;;;;4.07;2.80;;;14.40;99.90;;;;;;5119333;28;20309;-83
2021/08/10 01:37:11;;;;;;;6.60;3.10;;;14.40;99.90;;;;;;5119796;28;20176;-83
2021/08/10 01:39:39;;;;;;;6.40;3.03;;;14.30;99.90;;;;;;5121471;28;20172;-83
2021/08/10 01:42:07;;;;;;;3.87;3.00;;;14.30;99.90;;;;;;5118232;28;20256;-83
2021/08/10 01:44:35;;;;;;;3.40;3.10;;;14.20;99.90;;;;;;5119694;28;20171;-83
2021/08/10 01:47:03;;;;;;;3.83;3.43;;;14.20;99.90;;;;;;5119536;28;20202;-83
2021/08/10 01:49:31;;;;;;;6.67;3.40;;;14.10;99.90;;;;;;5121005;28;20159;-83
2021/08/10 01:51:59;;;;;;;3.73;3.03;;;14.10;99.90;;;;;;5119678;28;20183;-83
2021/08/10 01:54:26;;;;;;;6.37;3.43;;;14.00;99.90;;;;;;5119673;28;20606;-83
2021/08/10 01:56:52;;;;;;;7.00;3.23;;;14.10;99.90;;;;;;5119606;28;20199;-83
2021/08/10 01:59:19;;;;;;;4.50;3.10;;;14.00;99.90;;;;;;5119450;28;20290;-83
2021/08/10 02:01:46;;;;;;;5.67;3.13;;;14.00;99.90;;;;;;5121148;28;20203;-83
2021/08/10 02:04:14;;;;;;;4.40;3.23;;;14.10;99.90;;;;;;5119708;28;20235;-83
2021/08/10 02:06:41;;;;;;;6.70;3.60;;;14.00;99.90;;;;;;5119711;28;20196;-83
2021/08/10 02:09:07;;;;;;;5.37;3.17;;;14.00;99.90;;;;;;5120136;28;20171;-83
2021/08/10 02:11:34;;;;;;;6.10;3.30;;;13.90;99.90;;;;;;5121428;28;20195;-83
2021/08/10 02:14:01;;;;;;;5.30;3.13;;;13.90;99.90;;;;;;5121082;28;20171;-83
2021/08/10 02:16:28;;;;;;;6.13;3.43;;;13.80;99.90;;;;;;5119512;28;20559;-83
2021/08/10 02:18:54;;;;;;;3.77;3.00;;;13.80;99.90;;;;;;5119553;28;20179;-83
2021/08/10 02:21:23;;;;;;;6.87;3.07;;;13.80;99.90;;;;;;5119031;28;20203;-83
2021/08/10 02:23:50;;;;;;;5.00;3.07;;;13.80;99.90;;;;;;5120910;28;20160;-83
2021/08/10 02:26:18;;;;;;;4.60;3.63;;;13.80;99.90;;;;;;5119802;28;20209;-83
2021/08/10 02:28:44;;;;;;;4.47;3.23;;;13.80;99.90;;;;;;5120654;28;20164;-83
2021/08/10 02:31:11;;;;;;;7.23;3.30;;;13.70;99.90;;;;;;5120150;28;20251;-83
2021/08/10 02:33:37;;;;;;;6.87;4.03;;;13.70;99.90;;;;;;5119383;28;20179;-83
2021/08/10 02:36:05;;;;;;;3.83;3.00;;;13.70;99.90;;;;;;5119582;28;20235;-83
2021/08/10 02:38:33;;;;;;;4.87;2.77;;;13.80;99.90;;;;;;5121428;28;20227;-83
2021/08/10 02:41:01;;;;;;;5.53;3.33;;;13.70;99.90;;;;;;5121142;28;20192;-84
2021/08/10 02:43:28;;;;;;;4.43;3.03;;;13.80;99.90;;;;;;5119798;28;20186;-83
2021/08/10 02:45:54;;;;;;;5.50;3.07;;;13.70;99.90;;;;;;5117032;28;20661;-83
2021/08/10 02:48:20;;;;;;;5.07;3.33;;;13.70;99.90;;;;;;5116777;28;20207;-83
2021/08/10 02:50:47;;;;;;;3.70;3.30;;;13.60;99.90;;;;;;5116356;28;20190;-83
2021/08/10 02:53:13;;;;;;;3.63;2.83;;;13.60;99.90;;;;;;5115382;28;20171;-83
2021/08/10 02:55:43;;;;;;;11.23;3.50;;;13.50;99.90;;;;;;5116963;28;20214;-83
2021/08/10 02:58:19;;;;;;;6.27;3.00;;;13.50;99.90;;;;;;5116961;28;20227;-82
2021/08/10 03:00:52;;;;;;;4.80;3.20;;;13.60;99.90;;;;;;5115160;28;20194;-83
2021/08/10 03:03:24;;;;;;;5.17;3.27;;;13.60;99.90;;;;;;5116535;28;20202;-83
2021/08/10 03:05:55;;;;;;;6.80;2.90;;;13.60;99.90;;;;;;5114889;28;20191;-83
2021/08/10 03:08:28;;;;;;;4.73;3.00;;;13.60;99.90;;;;;;5116090;28;20174;-83
2021/08/10 03:10:55;;;;;;;3.93;3.03;;;13.50;99.90;;;;;;5115032;28;20595;-83
2021/08/10 03:13:24;;;;;;;4.70;3.20;;;13.50;99.90;;;;;;5114595;28;20205;-83
2021/08/10 03:15:52;;;;;;;4.30;3.13;;;13.50;99.90;;;;;;5115447;28;20758;-83
2021/08/10 03:18:21;;;;;;;5.97;3.27;;;13.50;99.90;;;;;;5124391;28;20180;-83
2021/08/10 03:20:48;;;;;;;4.70;3.00;;;13.50;99.90;;;;;;5136886;28;20208;-83
2021/08/10 03:23:16;;;;;;;4.00;3.23;;;13.50;99.90;;;;;;5139281;28;20166;-82
2021/08/10 03:25:44;;;;;;;5.13;3.17;;;13.50;99.90;;;;;;5133285;28;20195;-84
2021/08/10 03:28:12;;;;;;;3.67;2.70;;;13.40;99.90;;;;;;5121767;28;20179;-84
2021/08/10 03:30:39;;;;;;;4.23;2.70;;;13.40;99.90;;;;;;5121893;28;20179;-84
2021/08/10 03:33:05;;;;;;;5.10;3.27;;;13.40;99.90;;;;;;5123403;28;20216;-84
2021/08/10 03:35:32;;;;;;;4.20;2.97;;;13.40;99.90;;;;;;5121988;28;20199;-84
2021/08/10 03:37:58;;;;;;;4.10;2.90;;;13.40;99.90;;;;;;5123065;28;20168;-84
2021/08/10 03:40:23;;;;;;;4.70;3.20;;;13.50;99.90;;;;;;5123456;28;20197;-84
2021/08/10 03:42:50;;;;;;;4.43;2.97;;;13.40;99.90;;;;;;5122386;28;20646;-84
2021/08/10 03:45:16;;;;;;;6.03;3.20;;;13.40;99.90;;;;;;5120473;28;20202;-84
2021/08/10 03:47:43;;;;;;;3.37;2.90;;;13.40;99.90;;;;;;5122468;28;20175;-83
2021/08/10 03:50:10;;;;;;;4.80;3.03;;;13.40;99.90;;;;;;5123356;28;20176;-84
2021/08/10 03:52:36;;;;;;;6.57;2.90;;;13.40;99.90;;;;;;5127167;28;20187;-85
2021/08/10 03:55:03;;;;;;;4.67;2.93;;;13.40;99.90;;;;;;5128688;28;20256;-83
2021/08/10 03:57:32;;;;;;;5.47;3.00;;;13.40;99.90;;;;;;5128020;28;20186;-84
2021/08/10 03:59:59;;;;;;;7.33;2.80;;;13.40;99.90;;;;;;5126799;28;20201;-84
2021/08/10 04:02:25;;;;;;;3.63;2.90;;;13.40;99.90;;;;;;5125621;28;20207;-84
2021/08/10 04:04:54;;;;;;;4.40;2.80;;;13.40;99.90;;;;;;5120996;28;20184;-83
2021/08/10 04:07:20;;;;;;;4.53;3.40;;;13.30;99.90;;;;;;5122137;28;20167;-84
2021/08/10 04:09:47;;;;;;;4.17;3.20;;;13.30;99.90;;;;;;5125098;28;20167;-84
2021/08/10 04:12:13;;;;;;;2.87;2.57;;;13.30;99.90;;;;;;5124379;28;20172;-84
2021/08/10 04:14:40;;;;;;;4.87;3.10;;;13.20;99.90;;;;;;5123475;28;20179;-84
2021/08/10 04:17:07;;;;;;;4.07;3.00;;;13.30;99.90;;;;;;5120481;28;20199;-84
2021/08/10 04:19:36;;;;;;;4.80;3.30;;;13.20;99.90;;;;;;5123868;28;20178;-83
2021/08/10 04:22:03;;;;;;;5.03;2.97;;;13.30;99.90;;;;;;5124128;28;20213;-84
2021/08/10 04:24:29;;;;;;;4.57;3.00;;;13.30;99.90;;;;;;5122749;28;20180;-84
2021/08/10 04:26:56;;;;;;;4.43;3.00;;;13.30;99.90;;;;;;5120739;28;20203;-84
2021/08/10 04:29:22;;;;;;;3.90;3.20;;;13.30;99.90;;;;;;5121786;28;20176;-84
2021/08/10 04:31:48;;;;;;;4.43;3.07;;;13.30;99.90;;;;;;5120459;28;20184;-84
2021/08/10 04:34:14;;;;;;;4.43;3.10;;;13.30;99.90;;;;;;5121838;28;20207;-84
2021/08/10 04:36:40;;;;;;;4.63;3.00;;;13.30;99.90;;;;;;5120323;28;20200;-84
2021/08/10 04:39:06;;;;;;;3.97;2.43;;;13.30;99.90;;;;;;5121604;27;20171;-84
2021/08/10 04:41:31;;;;;;;4.47;2.93;;;13.40;99.90;;;;;;5119971;28;20207;-84
2021/08/10 04:43:57;;;;;;;3.53;2.40;;;13.40;99.90;;;;;;5121754;28;20254;-84
2021/08/10 04:46:27;;;;;;;4.17;2.70;;;13.40;99.90;;;;;;5119943;28;20192;-84
2021/08/10 04:48:53;;;;;;;6.50;3.00;;;13.40;99.90;;;;;;5119683;28;20172;-84
2021/08/10 04:51:19;;;;;;;3.77;2.97;;;13.40;99.90;;;;;;5121233;28;20186;-84
2021/08/10 04:53:44;;;;;;;3.23;2.47;;;13.40;99.90;;;;;;5119684;28;20176;-84
2021/08/10 04:56:10;;;;;;;4.87;3.00;;;13.40;99.90;;;;;;5121108;28;20196;-84
2021/08/10 04:58:36;;;;;;;4.93;2.90;;;13.40;99.90;;;;;;5119235;28;20205;-84
2021/08/10 05:01:02;;;;;;;3.03;2.70;;;13.50;99.90;;;;;;5119285;28;20215;-84
2021/08/10 05:03:29;;;;;;;3.63;2.80;;;13.50;99.90;;;;;;5119562;28;20179;-83
2021/08/10 05:05:55;;;;;;;3.47;2.50;;;13.50;99.90;;;;;;5121015;28;20187;-84
2021/08/10 05:08:20;;;;;;;3.13;2.63;;;13.60;99.90;;;;;;5120569;28;20197;-84
2021/08/10 05:10:46;;;;;;;4.63;2.50;;;13.70;99.90;;;;;;5118976;28;20570;-84
2021/08/10 05:13:12;;;;;;;3.20;2.80;;;13.70;99.90;;;;;;5118969;28;20172;-84
2021/08/10 05:15:37;;;;;;;5.77;3.00;;;13.70;99.90;;;;;;5120070;28;20194;-84
2021/08/10 05:18:04;;;;;;;6.30;3.10;;;13.70;99.90;;;;;;5118854;28;20222;-84
2021/08/10 05:20:31;;;;;;;4.40;3.10;;;13.70;99.90;;;;;;5120286;28;20202;-84
2021/08/10 05:22:57;;;;;;;6.10;3.23;;;13.80;99.90;;;;;;5118624;28;20251;-84
2021/08/10 05:25:23;;;;;;;3.80;2.83;;;13.80;99.90;;;;;;5119834;28;20195;-84
2021/08/10 05:27:49;;;;;;;5.47;2.83;;;13.90;99.90;;;;;;5118172;28;20700;-84
2021/08/10 05:30:14;;;;;;;8.40;3.30;;;14.00;99.90;;;;;;5120591;28;20644;-84
2021/08/10 05:32:40;;;;;;;4.47;2.67;;;14.00;99.90;;;;;;5120511;28;20179;-84
2021/08/10 05:35:06;;;;;;;4.57;2.90;;;14.10;99.90;;;;;;5120183;28;20286;-84
2021/08/10 05:37:33;;;;;;;4.03;2.53;;;14.20;99.90;;;;;;5120093;28;20176;-85
2021/08/10 05:39:58;;;;;;;9.27;2.63;;;14.30;99.90;;;;;;5120181;28;20186;-84
2021/08/10 05:42:24;;;;;;;3.70;2.80;;;14.30;99.90;;;;;;5118508;28;20585;-84
2021/08/10 05:44:50;;;;;;;5.07;2.90;;;14.40;99.90;;;;;;5119675;28;20176;-84
2021/08/10 05:47:15;;;;;;;5.00;3.03;;;14.50;99.90;;;;;;5117952;28;20185;-84
2021/08/10 05:49:41;;;;;;;5.33;4.07;;;14.50;99.90;;;;;;5118904;28;20191;-85
2021/08/10 05:52:08;;;;;;;7.63;2.87;;;14.60;99.90;;;;;;5117919;28;20215;-84
2021/08/10 05:54:34;;;;;;;7.83;2.80;;;14.60;99.90;;;;;;5118347;28;20179;-84
2021/08/10 05:57:01;;;;;;;4.50;2.80;;;14.70;99.90;;;;;;5120551;28;20550;-84
2021/08/10 05:59:26;;;;;;;3.93;2.70;;;14.80;99.90;;;;;;5118609;28;20197;-84
2021/08/10 06:01:52;;;;;;;9.97;2.90;;;14.90;99.90;;;;;;5120060;28;20215;-84
2021/08/10 06:04:18;;;;;;;4.83;2.60;;;14.90;99.90;;;;;;5120037;28;20191;-84
2021/08/10 06:06:43;;;;;;;3.90;2.87;;;15.00;99.90;;;;;;5120240;28;20251;-84
2021/08/10 06:09:09;;;;;;;4.33;2.77;;;15.00;99.90;;;;;;5120131;28;20171;-84
2021/08/10 06:11:35;;;;;;;7.50;2.80;;;15.10;99.90;;;;;;5119623;28;20198;-84
2021/08/10 06:14:02;;;;;;;4.03;2.17;;;15.20;99.90;;;;;;5118853;28;20183;-84
2021/08/10 06:16:28;;;;;;;5.70;2.70;;;15.20;99.90;;;;;;5119379;28;20241;-84
2021/08/10 06:18:54;;;;;;;4.33;2.80;;;15.30;99.90;;;;;;5117597;28;20202;-84
2021/08/10 06:21:20;;;;;;;4.97;2.47;;;15.40;99.90;;;;;;5118201;28;20669;-84
2021/08/10 06:23:46;;;;;;;8.13;3.17;;;15.40;99.90;;;;;;5117695;28;20180;-84
2021/08/10 06:26:12;;;;;;;5.43;2.80;;;15.50;99.90;;;;;;5117872;28;20199;-84
2021/08/10 06:28:37;;;;;;;3.90;2.50;;;15.60;99.90;;;;;;5118904;28;20172;-84
2021/08/10 06:31:04;;;;;;;3.00;2.30;;;15.70;99.90;;;;;;5116839;28;20203;-84
2021/08/10 06:33:30;;;;;;;5.47;2.50;;;15.70;99.90;;;;;;5117936;28;20176;-84
2021/08/10 06:35:56;;;;;;;4.27;2.60;;;15.80;99.90;;;;;;5126592;28;20196;-84
2021/08/10 06:38:22;;;;;;;5.53;2.60;;;15.80;99.90;;;;;;5137465;28;20186;-84
2021/08/10 06:40:48;;;;;;;6.17;3.17;;;15.90;99.90;;;;;;5138080;28;20163;-84
2021/08/10 06:43:13;;;;;;;10.20;2.90;;;16.00;99.90;;;;;;5126369;28;20235;-85
2021/08/10 06:45:40;;;;;;;3.60;2.73;;;16.10;99.90;;;;;;5117741;28;20199;-85
2021/08/10 06:48:06;;;;;;;7.07;2.87;;;16.20;99.90;;;;;;5119408;28;20221;-85
2021/08/10 06:50:33;;;;;;;6.40;3.43;;;16.30;99.90;;;;;;5119372;28;20179;-84
2021/08/10 06:52:58;;;;;;;6.97;3.40;;;16.40;99.90;;;;;;5119816;28;20167;-84
2021/08/10 06:55:24;;;;;;;12.17;3.47;;;16.50;99.90;;;;;;5118766;28;20226;-85
2021/08/10 06:57:50;;;;;;;4.87;2.97;;;16.50;99.90;;;;;;5119186;28;20274;-85
2021/08/10 07:00:16;;;;;;;5.70;2.60;;;16.60;99.90;;;;;;5117587;28;20713;-85
2021/08/10 07:02:42;;;;;;;5.97;2.80;;;16.70;99.90;;;;;;5117443;28;20298;-85
2021/08/10 07:05:09;;;;;;;5.80;2.63;;;16.80;99.90;;;;;;5117884;28;20227;-84
2021/08/10 07:07:35;;;;;;;5.40;2.63;;;16.90;99.90;;;;;;5120706;28;20733;-84
2021/08/10 07:10:02;;;;;;;5.07;2.60;;;17.00;99.90;;;;;;5120487;28;20177;-85
2021/08/10 07:12:27;;;;;;;5.83;2.50;;;17.00;99.90;;;;;;5118394;28;20599;-85
2021/08/10 07:14:54;;;;;;;5.93;2.93;;;17.10;99.90;;;;;;5119794;28;20257;-85
2021/08/10 07:17:20;;;;;;;8.17;4.20;;;17.20;99.90;;;;;;5119754;28;20177;-85
2021/08/10 07:19:45;;;;;;;12.50;5.20;;;17.30;99.90;;;;;;5117472;28;20184;-84
2021/08/10 07:22:11;;;;;;;6.47;3.60;;;17.50;99.90;;;;;;5117509;28;20213;-84
2021/08/10 07:24:36;;;;;;;8.47;3.53;;;17.60;99.90;;;;;;5119038;28;20627;-84
2021/08/10 07:27:02;;;;;;;9.47;3.30;;;17.70;99.90;;;;;;5116678;28;20202;-84
2021/08/10 07:29:28;;;;;;;6.57;2.83;;;17.80;99.90;;;;;;5118040;28;20173;-84
2021/08/10 07:31:54;;;;;;;4.20;2.67;;;17.90;99.90;;;;;;5118021;28;20233;-84
2021/08/10 07:34:20;;;;;;;6.10;2.47;;;18.10;99.90;;;;;;5118107;28;20181;-85
2021/08/10 07:36:45;;;;;;;7.03;2.37;;;18.20;99.90;;;;;;5117570;28;20267;-85
2021/08/10 07:39:11;;;;;;;6.97;2.47;;;18.30;99.90;;;;;;5119832;28;20667;-85
2021/08/10 07:41:43;;;;;;;4.33;2.50;;;18.40;99.90;;;;;;5121697;28;20206;-85
2021/08/10 07:44:08;;;;;;;4.67;3.03;;;18.50;99.90;;;;;;5120394;28;20274;-84
2021/08/10 07:46:35;;;;;;;2.63;2.03;;;18.60;99.90;;;;;;5121479;28;20234;-84
2021/08/10 07:49:00;;;;;;;6.03;2.77;;;18.80;99.90;;;;;;5120285;28;20185;-84
2021/08/10 07:51:26;;;;;;;3.70;2.70;;;19.00;99.90;;;;;;5119935;28;20186;-84
2021/08/10 07:53:52;;;;;;;4.07;2.80;;;19.10;99.90;;;;;;5119533;28;20190;-84
2021/08/10 07:56:18;;;;;;;3.87;2.83;;;19.20;99.90;;;;;;5120411;28;20708;-84
2021/08/10 07:58:45;;;;;;;3.33;2.70;;;19.40;99.90;;;;;;5121176;28;20529;-84
2021/08/10 08:01:11;;;;;;;2.93;2.60;;;19.50;99.90;;;;;;5120179;28;20301;-84
2021/08/10 08:03:36;;;;;;;5.10;2.70;;;19.60;99.90;;;;;;5120257;28;20640;-84
2021/08/10 08:06:02;;;;;;;3.23;2.53;;;19.70;99.90;;;;;;5121802;28;20688;-84
2021/08/10 08:08:28;;;;;;;7.13;2.80;;;19.90;99.90;;;;;;5120687;28;20554;-84
2021/08/10 08:10:54;;;;;;;5.97;2.70;;;20.10;99.90;;;;;;5122043;28;20542;-84
2021/08/10 08:13:20;;;;;;;4.20;2.37;;;20.20;99.90;;;;;;5121412;28;20179;-84
2021/08/10 08:15:46;;;;;;;3.47;2.63;;;20.40;99.90;;;;;;5120037;28;20199;-84
2021/08/10 08:18:12;;;;;;;4.00;2.97;;;20.50;99.90;;;;;;5120734;28;20187;-84
2021/08/10 08:20:38;;;;;;;4.03;2.50;;;20.60;99.90;;;;;;5120704;28;20545;-85
2021/08/10 08:23:04;;;;;;;4.30;2.53;;;20.70;99.90;;;;;;5121540;28;20203;-84
2021/08/10 08:25:30;;;;;;;3.67;2.20;;;20.70;99.90;;;;;;5120394;28;20592;-85
2021/08/10 08:27:55;;;;;;;3.60;2.60;;;20.80;99.90;;;;;;5120578;28;20195;-84
2021/08/10 08:30:21;;;;;;;3.37;2.60;;;20.90;99.90;;;;;;5120056;28;20187;-84
2021/08/10 08:32:47;;;;;;;3.30;2.20;;;21.00;99.90;;;;;;5119712;28;20190;-84
2021/08/10 08:35:12;;;;;;;5.37;2.47;;;21.20;99.90;;;;;;5120185;28;20210;-85
2021/08/10 08:37:39;;;;;;;3.13;2.53;;;21.40;99.90;;;;;;5120857;28;20179;-85
2021/08/10 08:40:06;;;;;;;2.50;2.30;;;21.60;99.90;;;;;;5121287;28;20176;-85
2021/08/10 08:42:33;;;;;;;3.17;2.57;;;21.70;99.90;;;;;;5119336;28;20216;-85
2021/08/10 08:44:59;;;;;;;3.27;2.20;;;21.90;99.90;;;;;;5119585;28;20205;-85
2021/08/10 08:47:26;;;;;;;2.53;2.10;;;21.80;99.90;;;;;;5121724;28;20168;-82
2021/08/10 08:49:55;;;;;;;4.13;2.40;;;21.70;99.90;;;;;;5119871;28;20687;-82
2021/08/10 08:52:23;;;;;;;4.33;2.67;;;21.60;99.90;;;;;;5120270;28;20596;-82
2021/08/10 08:54:49;;;;;;;3.77;2.20;;;21.50;99.90;;;;;;5120161;28;20211;-84
2021/08/10 08:57:15;;;;;;;5.17;2.37;;;21.30;99.90;;;;;;5121136;28;20205;-85
2021/08/10 08:59:42;;;;;;;3.00;2.33;;;21.40;99.90;;;;;;5120457;28;20171;-84
2021/08/10 09:02:18;;;;;;;3.53;2.17;;;21.70;99.90;;;;;;5120452;28;20256;-85
2021/08/10 09:04:45;;;;;;;3.40;2.60;;;22.00;99.90;;;;;;5118543;28;20636;-84
2021/08/10 09:07:11;;;;;;;3.30;2.60;;;22.40;99.90;;;;;;5119680;28;20176;-85
2021/08/10 09:09:36;;;;;;;3.47;2.23;;;22.60;99.90;;;;;;5121340;27;20183;-85
2021/08/10 09:12:10;;;;;;;3.63;2.33;;;22.90;99.90;;;;;;5121946;28;20179;-83
2021/08/10 09:14:44;;;;;;;3.67;2.90;;;23.00;99.90;;;;;;5119789;28;20209;-82
2021/08/10 09:17:13;;;;;;;4.40;2.33;;;23.10;99.90;;;;;;5120382;28;20192;-83
2021/08/10 09:19:51;;;;;;;5.90;2.53;;;23.10;99.90;;;;;;5121628;28;20179;-82
2021/08/10 09:22:22;;;;;;;4.53;2.40;;;23.20;99.90;;;;;;5119805;28;20546;-83
2021/08/10 09:24:52;;;;;;;3.37;2.70;;;23.40;99.90;;;;;;5120241;28;20168;-82
2021/08/10 09:27:39;;;;;;;3.47;2.60;;;23.60;99.90;;;;;;5120928;28;20252;-82
2021/08/10 09:30:05;;;;;;;2.47;2.27;;;23.80;99.90;;;;;;5120773;28;20256;-83
2021/08/10 09:32:31;;;;;;;3.43;2.93;;;23.80;99.90;;;;;;5118356;28;20211;-83
2021/08/10 09:35:07;;;;;;;2.67;2.17;;;24.00;99.90;;;;;;5118405;28;20191;-83
2021/08/10 09:37:33;;;;;;;3.43;2.50;;;24.20;99.90;;;;;;5119640;28;20206;-82
2021/08/10 09:39:59;;;;;;;2.70;2.30;;;24.30;99.90;;;;;;5118312;28;20174;-82
2021/08/10 09:42:26;;;;;;;3.63;2.23;;;24.40;99.90;;;;;;5118244;28;20268;-82
2021/08/10 09:44:58;;;;;;;3.37;2.13;;;24.60;99.90;;;;;;5118108;28;20180;-82
2021/08/10 09:47:50;;;;;;;5.03;3.13;;;24.90;99.90;;;;;;5119335;28;20667;-82
2021/08/10 09:50:26;;;;;;;4.13;2.40;;;25.00;99.90;;;;;;5116696;28;20191;-83
2021/08/10 09:52:52;;;;;;;4.23;2.47;;;25.00;99.90;;;;;;5130872;28;20209;-83
2021/08/10 09:55:19;;;;;;;3.17;2.17;;;25.00;99.90;;;;;;5139332;28;20183;-83
2021/08/10 09:58:04;;;;;;;4.73;2.43;;;25.10;99.90;;;;;;5139079;28;20196;-83
2021/08/10 10:00:40;;;;;;;4.17;2.33;;;24.90;99.90;;;;;;5124979;28;20187;-83
2021/08/10 10:03:23;;;;;;;5.60;2.73;;;25.10;99.90;;;;;;5122489;28;20209;-83
2021/08/10 10:05:49;;;;;;;2.67;2.47;;;25.30;99.90;;;;;;5123379;28;20602;-83
2021/08/10 10:08:20;;;;;;;4.40;2.13;;;25.40;99.90;;;;;;5123384;28;20178;-83
2021/08/10 10:10:48;;;;;;;3.87;2.30;;;25.50;99.90;;;;;;5123595;28;20218;-83
2021/08/10 10:13:18;;;;;;;5.47;2.50;;;25.70;99.90;;;;;;5123697;28;20170;-83
2021/08/10 10:15:45;;;;;;;3.20;2.40;;;25.80;99.90;;;;;;5123556;28;20197;-83
2021/08/10 10:18:12;;;;;;;2.97;2.23;;;26.10;99.90;;;;;;5125469;28;20167;-83
2021/08/10 10:20:41;;;;;;;3.07;2.30;;;26.10;99.90;;;;;;5124103;28;20182;-83
2021/08/10 10:23:12;;;;;;;2.40;2.10;;;26.30;99.90;;;;;;5124440;28;20207;-83
2021/08/10 10:25:38;;;;;;;2.83;2.20;;;26.30;99.90;;;;;;5124509;28;20197;-83
2021/08/10 10:28:04;;;;;;;3.80;2.20;;;26.30;99.90;;;;;;5126249;28;20216;-83
2021/08/10 10:30:30;;;;;;;5.63;2.40;;;26.20;99.90;;;;;;5126433;28;20173;-83
2021/08/10 10:32:56;;;;;;;2.50;2.27;;;26.30;99.90;;;;;;5127723;28;20235;-84
2021/08/10 10:35:22;;;;;;;2.63;2.10;;;26.60;99.90;;;;;;5125677;28;20273;-83
2021/08/10 10:37:51;;;;;;;3.17;2.33;;;26.80;99.90;;;;;;5127856;28;20240;-84
2021/08/10 10:40:21;;;;;;;3.67;2.30;;;26.70;99.90;;;;;;5125795;28;20197;-84
2021/08/10 10:42:50;;;;;;;2.40;2.00;;;26.70;99.90;;;;;;5126540;28;20665;-84
2021/08/10 10:45:37;;;;;;;4.93;2.53;;;26.70;99.90;;;;;;5126455;28;20202;-84
2021/08/10 10:48:42;;;;;;;3.83;2.33;;;26.90;99.90;;;;;;5126992;28;20171;-84
2021/08/10 10:51:15;;;;;;;3.07;2.30;;;26.80;99.90;;;;;;5068252;28;20275;-84
2021/08/10 10:53:42;;;;;;;4.47;2.73;;;26.90;99.90;;;;;;5068221;28;20173;-84
2021/08/10 10:56:30;;;;;;;2.60;2.40;;;26.90;99.90;;;;;;5107820;28;20215;-84
2021/08/10 10:59:22;;;;;;;2.63;2.03;;;27.10;99.90;;;;;;5123076;28;20214;-83
2021/08/10 11:01:48;;;;;;;4.07;2.70;;;27.10;99.90;;;;;;5136558;28;20230;-83
2021/08/10 11:04:14;;;;;;;2.57;2.30;;;27.30;99.90;;;;;;5135829;28;20179;-83
2021/08/10 11:06:46;;;;;;;3.63;2.90;;;27.30;99.90;;;;;;5135451;28;20192;-83
2021/08/10 11:09:37;;;;;;;2.40;2.20;;;27.40;99.90;;;;;;5135124;28;20172;-83
2021/08/10 11:12:36;;;;;;;3.60;2.23;;;27.60;99.90;;;;;;5122322;28;20194;-83
2021/08/10 11:15:02;;;;;;;2.63;2.40;;;27.80;99.90;;;;;;5122861;28;20179;-84
2021/08/10 11:17:28;;;;;;;2.77;2.10;;;27.90;99.90;;;;;;5122161;28;20241;-84
2021/08/10 11:19:53;;;;;;;2.73;2.30;;;28.10;99.90;;;;;;5123494;28;20252;-84
2021/08/10 11:22:19;;;;;;;3.17;2.50;;;28.30;99.10;;;;;;5123276;28;20213;-84
2021/08/10 11:24:53;;;;;;;3.20;2.37;;;28.40;99.90;;;;;;5122264;28;20175;-84
2021/08/10 11:27:39;;;;;;;2.67;2.07;;;28.50;99.20;;;;;;5120321;28;20180;-83
2021/08/10 11:30:21;;;;;;;3.63;2.00;;;28.40;98.40;;;;;;5122374;28;20186;-84
2021/08/10 11:32:49;;;;;;;2.60;2.17;;;28.40;97.90;;;;;;5122167;28;20237;-84
2021/08/10 11:35:39;;;;;;;2.90;2.27;;;28.30;99.90;;;;;;5121720;28;20600;-84
2021/08/10 11:38:17;;;;;;;4.17;2.20;;;28.50;99.90;;;;;;5122699;28;20180;-83
2021/08/10 11:40:49;;;;;;;3.23;2.20;;;28.50;98.30;;;;;;5120687;28;20263;-84
2021/08/10 11:43:15;;;;;;;3.90;2.50;;;28.60;99.40;;;;;;5121149;28;20176;-84
2021/08/10 11:45:41;;;;;;;3.63;2.30;;;28.70;99.10;;;;;;5120160;28;20198;-84
2021/08/10 11:48:07;;;;;;;3.53;2.60;;;28.90;99.90;;;;;;5121917;28;20180;-84
2021/08/10 11:50:34;;;;;;;2.57;2.30;;;28.70;95.30;;;;;;5122111;28;20169;-84
2021/08/10 11:53:03;;;;;;;3.23;2.53;;;28.40;99.90;;;;;;5120027;28;20183;-83
2021/08/10 11:55:35;;;;;;;3.60;2.30;;;28.20;94.40;;;;;;5121908;28;20184;-83
2021/08/10 11:58:06;;;;;;;3.30;2.17;;;27.90;95.70;;;;;;5120491;28;20229;-84
2021/08/10 12:00:35;;;;;;;2.67;2.10;;;27.70;98.10;;;;;;5121204;28;20196;-84
2021/08/10 12:03:02;;;;;;;2.90;2.27;;;27.60;97.90;;;;;;5121922;28;20192;-84
2021/08/10 12:05:28;;;;;;;2.37;2.10;;;27.20;95.90;;;;;;5122442;28;20195;-84
2021/08/10 12:07:57;;;;;;;2.60;2.17;;;26.80;98.00;;;;;;5122563;28;20658;-84
2021/08/10 12:10:26;;;;;;;4.17;2.20;;;26.30;96.40;;;;;;5121509;28;20179;-83
2021/08/10 12:12:51;;;;;;;2.93;2.23;;;25.80;97.10;;;;;;5120827;28;20259;-83
2021/08/10 12:15:43;;;;;;;3.07;2.20;;;25.50;99.10;;;;;;5121079;28;20185;-83
2021/08/10 12:18:10;;;;;;;5.27;2.10;;;25.20;98.90;;;;;;5116920;28;20212;-83
2021/08/10 12:20:36;;;;;;;3.10;2.03;;;24.90;99.40;;;;;;5119873;28;20203;-83
2021/08/10 12:23:11;;;;;;;5.20;2.17;;;24.80;98.80;;;;;;5119519;28;20680;-83
2021/08/10 12:25:38;;;;;;;3.07;2.20;;;24.80;99.90;;;;;;5120338;28;20590;-83
2021/08/10 12:28:10;;;;;;;2.97;2.30;;;24.90;99.70;;;;;;5122913;28;20238;-83
2021/08/10 12:30:42;;;;;;;4.57;2.20;;;24.90;98.80;;;;;;5123248;28;20168;-83
2021/08/10 12:33:17;;;;;;;2.50;2.10;;;24.90;99.70;;;;;;5121894;28;20628;-83
2021/08/10 12:36:15;;;;;;;3.40;2.20;;;24.80;99.90;;;;;;5122008;28;20198;-83
2021/08/10 12:38:41;;;;;;;4.60;2.53;;;24.90;99.90;;;;;;5089054;28;20275;-83
2021/08/10 12:41:07;;;;;;;3.57;2.20;;;24.90;99.80;;;;;;5122761;28;20598;-83
2021/08/10 12:43:34;;;;;;;3.83;2.40;;;25.10;99.90;;;;;;5123883;28;20201;-83
2021/08/10 12:46:27;;;;;;;4.00;2.33;;;25.60;99.90;;;;;;5122559;28;20229;-83
2021/08/10 12:49:15;;;;;;;5.07;2.40;;;26.40;99.90;;;;;;5121415;28;20535;-83
2021/08/10 12:51:56;;;;;;;5.77;2.40;;;27.40;99.90;;;;;;5122777;28;20176;-83
2021/08/10 12:54:24;;;;;;;4.00;2.30;;;28.10;99.90;;;;;;5121947;28;20236;-84